Timeline UpdatesTrip UpdatesNews PostsPvt PostsTravel TipsAdmin PostsConv PostsFollowed PostsChat RequestsBlog PostsPNR Posts

Disclaimer
Search
 
 
Wed Jul 23, 2014 04:56:52 ISTHomeTrainsΣChainsAtlasPNRForumGalleryNewsFAQTripsMembersLoginFeedback
Latest...
.
Wed Apr 23, 2014 (07:20PM)
⇐ Return Journey: Train# 12649

12650/Karnataka Sampark Kranti Express(Via Kacheguda)

Jun 24 (12:11AM)
Change Departure Station:
Change Arrival Station:
Post a Train Travel TipPost a Train Travel Tip **new
Post a Comment/Question/Picture/VideoPost a Comment/Question/Picture/Video
Inaugural Run
Thu Feb 12, 2004
Pantry/Catering
✓ Pantry Car Avbl
✓ Catering Avbl
RSA - Rake Sharing
12629/30
Rake/Coach Composition
Loco<-SLR-GN-HA1-A1-B1-B2-B3-B4-S10-S9-S8-PC-S7-S6-S5-S4-S3-S2-S1-HCPV-HCPV-HCPV-HCPV-GS-SLR & SLRHPCV-HPCV-HPCV-GN-HA1-A1-B1-B2-B3-B4-S1-S2-S3-PC-S4-S5-S6-S7-S8-S9-S10-GN-SLR>Loco =24 Coach Train, Train have 2 Rake pattern.
Loco
NZM-KCG: LGD WAP-7 KCG-YPR: KJM WDP 4/4B
News    PNR    Forum    Time-Table    Availability    Fare Chart    Map    Arr/Dep History    Trips    Gallery    ΣChains    X/O    Timeline    
Travel Time: 36h 25m    8 halts    Distance: 2276 km    Avg Speed: 62 km/hr
Type: Sampark Kranti
Zone: SWR/South Western
Departs @ 06:45
Platform# 7
SMT T S
Delhi Hazrat Nizamuddin/NZM 
Arrives @ 19:10 +1 night
Platform# 4
SMTW F 
Yesvantpur Junction/YPR 

8 halts. 311 intermediate Stations between Delhi Hazrat Nizamuddin and Yesvantpur Junction

Hide intermediate Stations  Show Old Time-Table

#CodeStation NameX/OArrivesAvgDepartsAvgHaltPFDay#KmSpeedElevZoneAddress
1NZM»Delhi Hazrat Nizamuddin (7)»  -06:45-710.076209mNRNizamuddin East/Sarai KaleKhan Bus Terminal, Delhi NCT
1.1OKAOkhla (4)X  06:48-06:48-  13.7 76221mNRIshwar Nagar Mathura Road, Delhi NCT
1.2TKECTuglakabad East CabinX  06:50-06:50-  16.8 76214mNROkhla Indl Area II, Delhi NCT
1.3TKDTuglakabad (4)X  06:53-06:53-  19.7 76213mNRNear Tughlakabad Metro Station, Delhi NCT
1.4TKDCTughlakabad CabinX  06:57-06:57-  115.5 76210mNRFaridabad, Haryana
1.5FDBFaridabad (4)X  07:01-07:01-  120.8 76206mNRold Faridabad, Haryana
1.6FDNFaridabad New Town (3)  07:05-07:05-  124.7 76204mNRFaridabad, Haryana
1.7BVHBallabgarh (5)  07:08-07:08-  128.9 76203mNRFaridabad, Haryana
1.8PYLAPiyala Block Hut  07:13-07:13-  134.7 76200mNRLadholi - Shahpur Kalan - Sunped Road, Haryana
1.9ASTAsaoti (5)X  07:16-07:16-  138.8 76203mNRAsaoti, Haryana
1.10PWLPalwal (8)X  07:25-07:25-  150.0 76200mNRPalwal, Haryana
1.11RDERundhi (4)X  07:32-07:32-  159.3 76194mNCRRundhi, Haryana
1.12SHLKSholaka (4)  07:40-07:40-  169.8 76191mNCRFaridabad, Haryana
1.13BNCRBanchari (2)X  07:43-07:43-  173.1 76189mNCRNational Highway 2, Haryana
1.14HDLHodal (4)X  07:49-07:49-  180.2 76191mNCRFaridabad, Haryana
1.15KSVKosi Kalan (3)X  07:58-07:58-  192.5 76189mNCRKosi Kalan, Uttar Pradesh
1.16CHJChata (4)X  08:07-08:07-  1102.8 76185mNCRChhata, Uttar Pradesh
1.17AJHAjhai (2)X  08:15-08:15-  1112.8 76184mNCRAjhai, Uttar Pradesh
1.18VRBDVrindaban Road (3)X  08:23-08:23-  1123.8 76179mNCRVrindaban, Uttar Pradesh
1.19BTSRBhuteshwar (3)  08:29-08:29-  1131.3 76181mNCRMathura, Uttar Pradesh
1.20MTJMathura Junction (10)X  08:31-08:31-  1133.9 76179mNCRMathura, Uttar Pradesh
1.21BADBaad (3)X  08:39-08:39-  1143.9 76184mNCRBaad, Uttar Pradesh
1.22FARFarah (3)XO  08:46-08:46-  1152.6 76175mNCRFarah, Uttar Pradesh
1.23FHTFarah Town (2)X  08:48-08:48-  1154.9 76174mNCRFarah, Uttar Pradesh
1.24KXMKitham (3)X  08:55-08:55-  1164.1 76175mNCRKitham, Uttar Pradesh
1.25RNKARunkuta (3)  09:02-09:02-  1173.1 76172mNCRAGRA, Uttar Pradesh
1.26BFPBilochpura Agra (2)  09:10-09:10-  1182.2 76172mNCRAgra, Uttar Pradesh
1.27RKMRaja Ki Mandi (4)  09:11-09:11-  1183.6 76170mNCRAgra, Uttar Pradesh
1.28AGCAgra Cantt. (6)XO  09:14-09:14-  1187.6 76174mNCRAgra, Uttar Pradesh
1.29BHABhandaiX  09:22-09:22-  1197.9 76170mNCRBhandai, Uttar Pradesh
1.30JJJajauX  09:34-09:34-  1213.3 76166mNCRJajau, Uttar Pradesh
1.31MIAManiaX  09:46-09:46-  1227.8 76172mNCRManda, Rajasthan
1.32DHODholpur Junction (3)  09:56-09:56-  1240.2 76177mNCRDholpur, Rajasthan
1.33GHERGher  10:00-10:00-  1245.9 76152mNCRDhaulpur, Rajasthan
1.34HETHetampurX  10:06-10:06-  1253.0 76175mNCRDhaulpur, Rajasthan
1.35SIKDSikroda Kwanri  10:10-10:10-  1258.1 76175mNCRNH 3, Madhya Pradesh
1.36MRAMorena (3)X  10:17-10:17-  1267.1 76176mNCRMorena, Madhya Pradesh
1.37SANKSank  10:25-10:25-  1276.8 76179mNCRMorena(0753-2226392), Madhya Pradesh
1.38NUBNurabad  10:27-10:27-  1280.3 76179mNCRMorena(0753-2226392), Madhya Pradesh
1.39BAOBanmor  10:32-10:32-  1286.4 76189mNCRGwalior, Madhya Pradesh
1.40RRURayaru  10:37-10:37-  1292.5 76196mNCRGwalior, Madhya Pradesh
1.41BLNRBirlanagar (3)  10:45-10:45-  1303.0 76206mNCRGwalior, Madhya Pradesh
1.42GWLGwalior Junction (4)XO  10:47-10:47-  1305.6 76214mNCRGwalior, Madhya Pradesh
1.43STLISithouli (2)  10:54-10:54-  1314.4 76228mNCRGwalior, Madhya Pradesh
1.44SLVSandalpur  11:00-11:00-  1321.8 76264mNCRGwalior, Madhya Pradesh
1.45ARIAntri  11:05-11:05-  1327.8 76257mNCRGwalior, Madhya Pradesh
1.46AEHAnant PaithX  11:13-11:13-  1338.0 76228mNCRGwalior, Madhya Pradesh
1.47SMTLSimariatalX  11:17-11:17-  1342.7 76210mNCRSimiriya Tal, Madhya Pradesh
1.48DBADabra (3)X  11:21-11:21-  1348.0 76204mNCRDabra(District-Gwalior), Madhya Pradesh
1.49KTRAKotra  11:29-11:29-  1357.5 76205mNCRNH 75, Madhya Pradesh
1.50SORSonagir (2)  11:36-11:36-  1366.8 76211mNCRDatia, Madhya Pradesh
1.51DAADatia (2)O  11:45-11:45-  1378.3 76264mNCRDatia, Madhya Pradesh
1.52KRQKarariX  11:56-11:56-  1391.9 76243mNCRNational Highway 75, Madhya Pradesh
2JHSJhansi Junction (7)X  12:05-12:13-8m21403.475259mNCRJhansi, Uttar Pradesh
2.1JHSAJhansi A CabinX  12:15-12:15-  1406.2 75258mNCRJhansi, Uttar Pradesh
2.2BJIBijauli (3)  12:20-12:20-  1411.8 75273mNCRJhansi, Uttar Pradesh
2.3KHJKhajraha (3)  12:27-12:27-  1420.8 75277mNCRJhansi(0510-2440441), Uttar Pradesh
2.4BABBabina (3)  12:33-12:33-  1428.9 75285mNCRBabina, Uttar Pradesh
2.5BPWBurhpura (3)  12:37-12:37-  1434.0 75303mNCRBabina, Uttar Pradesh
2.6BZYBasai (3)  12:43-12:43-  1441.0 75287mNCR07522289600(Gate ManMob. - 9452701575), Madhya Pradesh
2.7MZXMatatila (3)X  12:49-12:49-  1448.5 75305mNCRKhaniyadhana, Madhya Pradesh
2.8TBTTalbahat (4)  12:53-12:53-  1453.8 75314mNCRKhaniyadhana Station Rd, Madhya Pradesh
2.9DLADoulta  12:57-12:57-  1459.0 75327mNCRTalbehat, Madhya Pradesh
2.10BJABijrotha (2)X  13:02-13:02-  1464.5 75353mNCRDistrict Lalitpur(05176-272220), Uttar Pradesh
2.11JHAJakhaura (3)X  13:09-13:09-  1473.2 75361mNCRDistrict Lalitpur, Uttar Pradesh
2.12DWADailwara (3)X  13:17-13:17-  1483.3 75367mNCRDailwara(05176-272220), Uttar Pradesh
2.13LARLalitpur (3)X  13:25-13:25-  1493.7 75373mNCRLalitpur, Uttar Pradesh
2.14JROJiron (3)X  13:32-13:32-  1503.2 75384mNCRSonebhadra, Uttar Pradesh
2.15JLNJakhalaun (3)  13:38-13:38-  1510.4 75394mNCRLalitpur(05176-272220), Uttar Pradesh
2.16DUADhaura (3)  13:47-13:47-  1522.0 75407mNCRDhaura Tanda, Madhya Pradesh
2.17MXSMohasa (3)  13:54-13:54-  1530.9 75414mNCRBina, Madhya Pradesh
2.18KOAKarondaO  13:59-13:59-  1536.9 75410mNCRBina, Madhya Pradesh
2.19AGDAgasod  14:08-14:08-  1548.6 75427mNCRBina, Madhya Pradesh
2.20BINABina Junction (4)  14:15-14:15-  1556.6 75414mWCRJn Pt - KATNI/GUNA/ BPL/JHS, Madhya Pradesh
2.21KIKAKurwai Kethora (2)  14:22-14:22-  1565.9 75407mWCRBina, Madhya Pradesh
2.22MABAMandi Bamora (3)  14:29-14:29-  1573.8 75413mWCRState Highway 14, Madhya Pradesh
2.23KAHKalhar (3)O  14:36-14:36-  1582.6 75409mWCRSagar, Madhya Pradesh
2.24CLHTChulheta  14:40-14:40-  1588.1 75401mWCRBareth, Madhya Pradesh
2.25BETBareth (4)  14:43-14:43-  1592.5 75418mWCRState Highway 19, Madhya Pradesh
2.26RKDIRaukheri  14:49-14:49-  1599.2 75417mWCRParsora Basoda, Madhya Pradesh
2.27RKRIRao Khedi  14:49-14:49-  1599.2 75417mWCRGanj Basoda, Madhya Pradesh
2.28BAQGanj Basoda (4)  14:51-14:51-  1602.3 75416mWCRVidisha, Madhya Pradesh
2.29PAIPabai (3)X  14:58-14:58-  1611.1 75425mWCRVidisha, Madhya Pradesh
2.30GLGGulabhGanj (3)  15:06-15:06-  1620.6 75432mWCRVidisha, Madhya Pradesh
2.31SUMRSumer (3)  15:12-15:12-  1628.2 75417mWCRVidisha, Madhya Pradesh
2.32SORISorai (3)X  15:18-15:18-  1636.3 75428mWCRVidisha, Madhya Pradesh
2.33BHSVidisha (3)  15:22-15:22-  1641.6 75432mWCRVidisha, Madhya Pradesh
2.34BTWNBetwa Cabin  15:25-15:25-  1645.2 75422mWCRVidisha, Madhya Pradesh
2.35SCISanchi (2)X  15:30-15:30-  1651.0 75428mWCRRaisen, Madhya Pradesh
2.36SMTSalamatpur (3)X  15:36-15:36-  1658.3 75437mWCRRaisen, Madhya Pradesh
2.37DWGDewanGanj (3)X  15:43-15:43-  1667.6 75444mWCRRaisen, Madhya Pradesh
2.38BVBBhadbhadaghat (2)  15:50-15:50-  1676.4 75474mWCRVidisha Road Bhopal, Madhya Pradesh
2.39SUWSukhisewaniyan (3)  15:56-15:56-  1683.9 75508mWCRBhopal, Madhya Pradesh
2.40NSZNishatpura  16:04-16:04-  1694.2 75492mWCRBhopal, Madhya Pradesh
3BPLBhopal Junction (6)X  16:05-16:15-10m11695.266497mWCRBhopal, Madhya Pradesh
3.1HBJBhopal HabibGanj (5)  16:21-16:21-  1701.4 66496mWCRHabibGanj, Madhya Pradesh
3.2MSOMisrod (2)X  16:26-16:26-  1707.6 66468mWCRBhopal, Madhya Pradesh
3.3MDDPMandi Dip (1)  16:35-16:35-  1717.5 66449mWCRMandideep, Madhya Pradesh
3.4ITKLItaya Kalan  16:41-16:41-  1723.5 66447mWCRMandideep, Madhya Pradesh
3.5ODGObaidulla GanjX  16:48-16:48-  1731.0 66450mWCRObaidullaganj Raisen Dist., Madhya Pradesh
3.6BKABarkheraX  16:58-16:58-  1742.4 66472mWCRBarkhera, Madhya Pradesh
3.7CHQChoka  17:04-17:04-  1749.0 66431mWCRBARKHERA, Madhya Pradesh
3.8MIGMidghat  17:10-17:10-  1754.9 66387mWCRNational Highway 69, Madhya Pradesh
3.9BNIBudni (2)X  17:16-17:16-  1761.8 66311mWCRSehore 466445 Madhya pradesh, Madhya Pradesh
3.10HBDHoshangabad (2)X  17:22-17:22-  1768.8 66308mWCRHoshangabad, Madhya Pradesh
3.11PRKDPowerkhedaX  17:31-17:31-  1778.6 66316mWCRItarsi, Madhya Pradesh
3.12ETFItarsi F Cabin  17:38-17:38-  1785.6 66324mWCRItarsi, Madhya Pradesh
3.13ETItarsi Junction (7)  17:39-17:39-  1786.9 66329mWCRItarsi 461111, Madhya Pradesh
3.14JUHJujharpur Cabin  17:40-17:40-  1788.0 66323mWCRItarsi, Madhya Pradesh
3.15JHPJujharpurX  17:42-17:42-  1790.4 66328mCRItarsi, Madhya Pradesh
3.16KRTHKiratgarh (2)  17:49-17:49-  1797.6 66369mCRItarsi, Madhya Pradesh
3.17KSLAKesla (2)  17:54-17:54-  1803.3 66410mCRNH69, Madhya Pradesh
3.18TAKUTaku (2)  17:59-17:59-  1809.3 66390mCRItarsi, Madhya Pradesh
3.19SAHLSaheli (2)X  18:03-18:03-  1813.3 66388mCRItarsi, Madhya Pradesh
3.20KQEKala Akhar (2)X  18:09-18:09-  1819.9 66376mCRItarsi, Madhya Pradesh
3.21POXPola Patthar (2)  18:15-18:15-  1826.2 66392mCRBetul, Madhya Pradesh
3.22DOHDhodramohar (2)  18:22-18:22-  1834.6 66376mCRBetul, Madhya Pradesh
3.23MGRDMagardoh (2)  18:27-18:27-  1840.3 66393mCRBetul, Madhya Pradesh
3.24BBTRBarbatpur (3)  18:32-18:32-  1845.6 66394mCRBetul, Madhya Pradesh
3.25GDYAGhoradongri (3)X  18:43-18:43-  1857.2 66410mCRBetul, Madhya Pradesh
3.26DHQDharakhoh (2)X  18:57-18:57-  1872.3 66482mCRBetul, Madhya Pradesh
3.27MJYMaramjhiri (2)  19:08-19:08-  1885.1 66642mCRBetul, Madhya Pradesh
3.28BZUBetul (3)  19:16-19:16-  1893.1 66644mCRBetul, Madhya Pradesh
3.29MALKMalkapur Road (1)X  19:22-19:22-  1899.6 66668mCRBetul, Madhya Pradesh
3.30BYSBarsali (2)X  19:28-19:28-  1906.2 66699mCRAmla, Madhya Pradesh
3.31AMLAAmla Junction (5)X  19:37-19:37-  1916.0 66733mCRAmla Distt. Betul, Madhya Pradesh
3.32JKRJaulkhera (2)  19:47-19:47-  1927.7 66759mCRNH 69, Madhya Pradesh
3.33MTYMultai (2)  19:58-19:58-  1938.9 66762mCRMultai, Madhya Pradesh
3.34HTNHatna Pur (2)  20:06-20:06-  1948.4 66730mCRNH 69, Madhya Pradesh
3.35CCDChichonda (3)  20:11-20:11-  1954.2 66703mCRNH 69 District Chhindwara, Madhya Pradesh
3.36GDKPGhundankhapa (2)  20:20-20:20-  1963.3 66611mCRMohi, Madhya Pradesh
3.37TEOTeegaon (2)X  20:27-20:27-  1970.9 66528mCRBetul, Madhya Pradesh
3.38PARPandhurna (2)  20:35-20:35-  1979.7 66481mCRDistt: Chhindwara, Madhya Pradesh
3.39DDMTDarimeta (2)X  20:43-20:43-  1988.2 66473mCRNarkher, Maharashtra
3.40NRKRNarkher Junction (3)  20:51-20:51-  1998.0 66411mCRNarkher, Maharashtra
3.41TNHTinkheda (2)  20:58-20:58-  11005.0 66415mCRSH 246, Maharashtra
3.42KLBAKalambha (2)  21:05-21:05-  11013.1 66406mCRSH 248, Maharashtra
3.43KATLKatol (2)X  21:14-21:14-  11023.2 66415mCRKatol, Maharashtra
3.44MERMetpanjra (3)X  21:23-21:23-  11032.3 66438mCRSH 248, Maharashtra
3.45SNKBSonkhamb (2)X  21:29-21:29-  11039.3 66403mCRSH 248, Maharashtra
3.46KOHLKohli (2)X  21:37-21:37-  11047.6 66368mCRSH 250, Maharashtra
3.47KSWRKalmeshwar (2)X  21:48-21:48-  11059.9 66336mCRKalameshwar, Maharashtra
3.48BWRABharatwada (2)  21:58-21:58-  11070.6 66322mCRNagpur, Maharashtra
3.49GNQGodhani (2)X  22:04-22:04-  11076.9 66312mCRNagpur, Maharashtra
4NGPNagpur Junction (8)X  22:10-22:20-10m211084.070314mCRNagpur 440001, Maharashtra
4.1MIBNagpur Moti Bagh (1)  22:21-22:21-  11084.8 70309mCRNagpur, Maharashtra
4.2AJNIAjni (3)  22:23-22:23-  11087.0 70310mCRNagpur 440003, Maharashtra
4.3KRIKhapri (2)  22:31-22:31-  11096.3 70312mCRNagpur, Maharashtra
4.4GMGGumgaon (2)  22:36-22:36-  11102.9 70302mCRNagpur, Maharashtra
4.5BTBRButi Bori (4)  22:44-22:44-  11111.6 70269mCRButi Bori, Maharashtra
4.6BOKBorkhedi  22:51-22:51-  11119.4 70268mCRWardha, Maharashtra
4.7SNISindi (2)  23:00-23:00-  11130.9 70258mCRWardha, Maharashtra
4.8TGPTuljapur (2)  23:07-23:07-  11138.8 70259mCRTuljapur, Maharashtra
4.9SLORSeloo RoadX  23:16-23:16-  11148.9 70256mCRMSH3, Maharashtra
4.10VADRWarud  23:23-23:23-  11156.8 70261mCRSewagram, Maharashtra
4.11SEGMSewagram Junction (5)  23:26-23:26-  11160.2 70279mCRWardha, Maharashtra
4.12CHJCChitodaX  23:29-23:29-  11163.5 70265mCRChitoda, Maharashtra
4.13BPKBhugaon (3)O  23:35-23:35-  11170.6 70267mCRWardha, Maharashtra
4.14SNNSonegaon (2)  23:40-23:40-  11177.1 70262mCRWardha, Maharashtra
4.15WGWagholi (2)XO  23:48-23:48-  11185.5 70238mCRWagholi, Maharashtra
4.16HGTHinganghat (3)  23:54-23:54-  11193.3 70228mCRHinganghat, Maharashtra
4.17YNAYenor  23:59-23:59-  11198.6 70221mCRMumbai, Maharashtra
4.18NGINagriX  00:09-00:09-  21210.1 70230mCRHinganghat, Maharashtra
4.19CKNIChikni Road (2)  00:19-00:19-  21221.9 70211mCRChandrapur, Maharashtra
4.20WRRWarora (2)X  00:28-00:28-  21232.4 70214mCRWarora, Maharashtra
4.21MJRIMajri Junction (3)  00:39-00:39-  21244.8 70198mCRDist. Chandrapur, Maharashtra
4.22BUXBhandak (5)X  00:47-00:47-  21254.5 70207mCRChandrapur, Maharashtra
4.23TAETadaliX  00:55-00:55-  21264.1 70207mCRTadali, Maharashtra
4.24CPWChotipadoli  01:02-01:02-  21271.8 70187mCRChandrapur, Maharashtra
4.25VVKNVivekananda Nagar  01:03-01:03-  21273.2 70183mCRChandrapur, Maharashtra
4.26CDChandrapur Maharashtra (3)O  01:08-01:08-  21278.8 70194mCRChandrapur 442401, Maharashtra
4.27BUPHBabupeth (2)O  01:12-01:12-  21283.3 70196mCRChandrapur, Maharashtra
4.28VSPWasanapura  01:16-01:16-  21288.3 70186mCRVisapur, Maharashtra
4.29GNVRGondwanavisapur  01:16-01:16-  21288.4 70183mCRVisapur, Maharashtra
5BPQBalharshah Junction (5)T01:20-01:30-10m--21292.667188mCRBallarpur. Ph : 07172 - 240341, Maharashtra
5.1MAGHManikgarh (2)  01:39-01:39-  21302.1 67184mSCRRajura Taluk, Maharashtra
5.2VHGNWihirgaon (2)X  01:46-01:46-  21310.7 67193mSCRPIN - 442905, Maharashtra
5.3WIRRWirur  01:55-01:55-  21320.1 67182mSCRChandrapur, Maharashtra
5.4MKDIMakudi (2)  02:06-02:06-  21333.0 67179mSCRMakudi, Maharashtra
5.5SRURSirpur Town (2)  02:17-02:17-  21344.4 67187mSCRAdilabad Dist., Telangana
5.6VEMVempalliX  02:25-02:25-  21354.0 67209mSCRAdilabad dt., Telangana
5.7SKZRSirpur Kaghaznagar (3)X  02:33-02:33-  21362.3 67181mSCRAdilabad Dist., Telangana
5.8RLTRalapetX  02:39-02:39-  21368.8 67185mSCRAdilabad dt., Telangana
5.9ASAFAsifabad Road (2)  02:46-02:46-  21376.7 67210mSCRAdilabad Dist., Telangana
5.10RLWRepalliwada  02:52-02:52-  21384.1 67254mSCRAdilabad Dist., Telangana
5.11RECHRechni Road (2)X  02:58-02:58-  21390.5 67250mSCRAdilabad Dist., Telangana
5.12BPABellampalli (3)X  03:07-03:07-  21400.8 67205mSCRTel:.08735 223298, Telangana
5.13MMZMandamari (4)  03:16-03:16-  21410.3 67176mSCRAdilabad Dist., Telangana
5.14RVKHRavindrakhani (2)X  03:19-03:19-  21414.1 67169mSCRAdilabad Dist., Telangana
5.15MCIManchiryal (3)X  03:25-03:25-  21420.7 67159mSCRAdilabad Dist., Telangana
5.16PPZPeddampet (2)  03:33-03:33-  21429.7 67155mSCRKarimnagar Dist., Telangana
5.17RDMRamagundam (3)  03:38-03:38-  21434.4 67170mSCRKarimnagar Dist. Ph : 08728 - 255237, Telangana
5.18RGPMRaghavapuram (2)  03:46-03:46-  21444.2 67216mSCRKarimnagar Dist., Telangana
5.19PDPLPeddapalli Junction (2)  03:53-03:53-  21451.9 67228mSCRKarimnagar Dist., Telangana
5.20KYOPKottapally  04:01-04:01-  21460.5 67212mSCRKottapalli. Karimnagar Dist., Telangana
5.21KOLRKolanoor (2)  04:06-04:06-  21465.7 67223mSCRKarimnagar Dist., Telangana
5.22OEAOdela (2)  04:10-04:10-  21470.3 67231mSCRKarimnagar Dist., Telangana
5.23PTKPPotkapalli (2)X  04:14-04:14-  21474.4 67219mSCRKarimnagar Dist., Telangana
5.24BGSFBisugir Sharif (2)  04:23-04:23-  21484.9 67227mSCRKarimnagar Dist., Telangana
5.25JMKTJamikunta (2)X  04:29-04:29-  21491.4 67236mSCRKarimnagar Dist., Telangana
5.26OPLUppal (2)  04:40-04:40-  21503.3 67251mSCRKarimnagar Dist., Telangana
5.27HSPHasanparthi Road (3)  04:50-04:50-  21515.2 67262mSCRWarangal Dist., Telangana
5.28KMPTKomatipalli  04:56-04:56-  21521.5 67281mSCRWarangal Dist., Telangana
5.29KZJEKazipet E Cabin  05:00-05:00-  21526.0 67288mSCRWarangal Dist., Telangana
5.30KZJTKazipet Town (1)  05:00-05:00-  21526.1 67289mSCRWarangal Dist., Telangana
5.31KZJKazipet Junction (3)  05:01-05:01-  21527.0 67292mSCRWarangal Dist., Telangana
5.32PQLPindial (2)  05:08-05:08-  21535.0 67322mSCRWarangal, Telangana
5.33NSKLNaskhalO  05:13-05:13-  21540.2 67313mSCRNaskhal, Telangana
5.34GNPGhanpur (2)  05:19-05:19-  21546.8 67344mSCRWarangal Dist. / Enq Ph : 08711 220231, Telangana
5.35IPGIppuguda  05:24-05:24-  21553.0 67360mSCRKurcha Pally Rd, Telangana
5.36RGPRaghunathpalli (2)  05:34-05:34-  21563.6 67357mSCRWarangal Dist., Telangana
5.37YSPMYasantapuru  05:40-05:40-  21570.7 67365mSCRWarangal Dist., Telangana
5.38ZNJangaon (2)X  05:44-05:44-  21574.9 67380mSCRWarangal Dist., Telangana
5.39PBPPembarti (2)  05:49-05:49-  21580.4 67382mSCRWarangal Dist., Telangana
5.40ALERAler (2)  05:58-05:58-  21590.0 67366mSCRNalgonda Dist., Telangana
5.41WPWangapalli (2)O  06:07-06:07-  21599.8 67393mSCRNalgonda Dist., Telangana
5.42RAGRaigir (2)X  06:12-06:12-  21605.8 67415mSCRNalgonda, Telangana
5.43BGBhongir (3)X  06:18-06:18-  21612.3 67455mSCRNalgonda Dist., Telangana
5.44PGDPPagidipalli  06:27-06:27-  21622.3 67428mSCRNalgonda Dist, Telangana
5.45BNBibinagar (2)XO  06:30-06:30-  21625.5 67448mSCRNalgonda Dist., Telangana
5.46GTGhatkesar (2)  06:41-06:41-  21638.4 67481mSCRRangareddy Dist., Telangana
5.47CHZCharlapalli (2)X  06:48-06:48-  21646.2 67523mSCRRangareddy Dist., Telangana
5.48MLYCMoula Ali C Cabin  06:55-06:55-  21653.1 67526mSCRSecunderabad, Telangana
5.49MLYGMoula Ali G Cabin  06:56-06:56-  21654.9 67537mSCRSecunderabad, Telangana
5.50MJFMalkajgiri (3)O  06:57-06:57-  21655.9 67535mSCRSecunderabad, Telangana
5.51LGDHLalaguda Gate (2)X  06:58-06:58-  21656.9 67543mSCRSecunderabad, Telangana
5.52STPDSitafalmandi (4)  07:00-07:00-  21659.6 67533mSCRSecunderabad, Telangana
5.53ATCArts College (2)  07:01-07:01-  21660.7 67521mSCRHyderabad, Telangana
5.54JOOJamai Osmania (2)  07:02-07:02-  21661.3 67515mSCRHyderabad, Telangana
5.55VARVidya Nagar (2)  07:03-07:03-  21662.7 67505mSCRHyderabad, Telangana
6KCGHyderabad Kacheguda (5)X07:05-07:15-10m221664.762494mSCRHyderabad - 500027, Telangana
6.1MXTMalakpet (2)  07:17-07:17-  21666.3 62494mSCRHyderabad, Telangana
6.2DQRDabirpura (2)  07:18-07:18-  21667.5 62500mSCRHyderabad, Telangana
6.3YKAYakutpura (2)X  07:19-07:19-  21668.3 62505mSCRHyderabad, Telangana
6.4HPGHuppuguda (2)  07:21-07:21-  21670.7 62520mSCRHyderabad, Telangana
6.5FMFalaknuma (3)  07:22-07:22-  21671.9 62523mSCRHyderabad, Telangana
6.6NSVPNPA Shivram Pally (1)  07:27-07:27-  21676.7 62541mSCRHyderabad, Telangana
6.7BDVLBudvel (2)X  07:29-07:29-  21678.6 62556mSCRHyderabad, Telangana
6.8URUmdanagar (3)X  07:35-07:35-  21685.1 62581mSCRHyderabad, Telangana
6.9TMXTimmapur (2)  07:51-07:51-  21701.5 62582mSCRMahabubnagar Dist., Telangana
6.10KOTTKottur (1)  07:53-07:53-  21703.8 62591mSCR, Telangana
6.11HBLNHBL Nagar (1)X  07:55-07:55-  21706.0 62607mSCR, Telangana
6.12SHNRShadnagar (3)X  08:05-08:05-  21716.5 62648mSCRMahabubnagar Dist., Telangana
6.13BRGLBurgula (1)  08:13-08:13-  21724.4 62597mSCR, Telangana
6.14BABRBalanagar (3)  08:19-08:19-  21730.0 62566mSCR, Telangana
6.15RRGARanga Reddy Guda (1)  08:24-08:24-  21735.5 62564mSCR, Telangana
6.16RJAPRajapur (1)X  08:29-08:29-  21740.6 62541mSCR, Telangana
6.17GLYGollapally (1)  08:34-08:34-  21745.3 62556mSCR, Telangana
6.18JCLJadcherla (3)X  08:41-08:41-  21752.9 62545mSCR509301, Telangana
6.19DTPDivitipalli (2)  08:48-08:48-  21760.6 62520mSCRMahbubnagar Dist., Telangana
6.20YNGYenugonda (1)O  08:54-08:54-  21766.4 62508mSCRMahabubnagar Dist., Telangana
6.21MBNRMahbubnagar (3)X  08:58-08:58-  21770.5 62500mSCRMahbubnagar, Telangana
6.22MHBTMahbubnagar Town Halt (1)  09:01-09:01-  21773.0 62500mSCRMahbubnagar, Telangana
6.23MQNManyamkonda (1)  09:12-09:12-  21784.5 62410mSCRMahbubnagar Dist., Telangana
6.24KTKAKotakadra (1)  09:16-09:16-  21788.8 62409mSCRMahbubnagar Dist., Telangana
6.25DKCDevarkadra (1)  09:22-09:22-  21794.9 62390mSCRMahbubnagar Dist., Telangana
6.26DKURDokur (1)  09:26-09:26-  21799.7 62383mSCRMahbubnagar Dist, Telangana
6.27KQQKaukuntla (1)  09:32-09:32-  21805.5 62372mSCR, Telangana
6.28KXIKurumurthi (1)  09:37-09:37-  21810.6 62361mSCRMahbubnagar Dist., Telangana
6.29KONNKonnur (1)  09:45-09:45-  21819.1 62346mSCRMahbubnagar Dist., Telangana
6.30WPRWanaparti Road (2)  09:50-09:50-  21823.9 62330mSCRMahbubnagar Dist., Telangana
6.31AJKAjjakolu (1)  09:54-09:54-  21828.0 62316mSCR, Telangana
6.32SRNRSriramnagar (2)X  09:59-09:59-  21832.9 62311mSCRMahbubnagar Dist., Telangana
6.33ARPLArepalli Halt (1)  10:03-10:03-  21837.1 62301mSCRMahbubnagar Dist., Telangana
6.34GWDGadwal Junction (2)  10:11-10:11-  21845.6 62327mSCRMahbubnagar Dist., Telangana
6.35PDOPoodoor (1)X  10:19-10:19-  21853.7 62330mSCRMahabubnagar Dist 509125, Telangana
6.36PDNAPeddadinne (1)  10:22-10:22-  21857.2 62319mSCR, Telangana
6.37IKIItikyala (1)  10:29-10:29-  21863.7 62324mSCR, Telangana
6.38MOAManopad (1)  10:42-10:42-  21877.2 62310mSCRMahbubnagar Dist., Telangana
6.39SBBJSri Bala Brahmeswara Jogulamba Halt (1)  10:55-10:55-  21891.1 62312mSCRMahabubnagar Dist., Telangana
6.40ALPRAlampur Road (1)  10:58-10:58-  21893.5 62308mSCR, Telangana
7KRNTKurnool City (3)  11:05-11:07-2m--21900.842293mSCRKurnool Ph:08518-220110, Andhra Pradesh
7.1KOLAKotla (1)  11:11-11:11-  21903.3 42288mSCRKurnool, Andhra Pradesh
7.2DUUDupadu (1)  11:22-11:22-  21911.6 42310mSCRRayalaseema Region, Andhra Pradesh
7.3UKDUlindakonda (1)  11:39-11:39-  21922.8 42329mSCRUlindakonda, Andhra Pradesh
7.4VDIVeldurti (2)  11:56-11:56-  21935.1 42341mSCRVeldurthi, Andhra Pradesh
7.5BVOBogolu (1)X  12:09-12:09-  21944.0 42371mSCRBogolu Station, Andhra Pradesh
8DHNEDhone Junction (3)T12:25-12:35-10m--21955.260425mSCR518222, Andhra Pradesh
8.1MYLMalliyala (1)X  12:45-12:45-  21965.5 600mSCRKurnool, Andhra Pradesh
8.2LMDLinganeni Doddi (1)  12:54-12:54-  21974.3 60476mSCRRayalaseema Region, Andhra Pradesh
8.3PDLPendekallu Junction (2)  13:01-13:01-  21980.9 60462mSCRKurnool, Andhra Pradesh
8.4PGDIPagidirai (1)  13:16-13:16-  21995.8 60446mSCRGooty-Adoni Road, Andhra Pradesh
8.5GYGooty Junction (2)p13:30-13:30-  22010.3 52370mSCRNH 7 Anantapur District, Andhra Pradesh
8.6TKPYThurakapalli (2)X  13:41-13:41-  22019.7 52343mSCRTurakapalle, Andhra Pradesh
8.7RRJRamaraju Palli (2)  13:47-13:47-  22025.0 52329mSCRRayalaseema Region, Andhra Pradesh
8.8PMDBPamidi (1)  13:55-13:55-  22032.2 52313mSCRAnantapur District, Andhra Pradesh
8.9PMDPamidi (1)  13:57-13:57-  22033.9 52307mSCRNational Highways 7, Andhra Pradesh
8.10KLUKalluru Junction (3)  14:04-14:04-  22039.8 52312mSCRAnantapur District, Andhra Pradesh
8.11GDEGarladinne (2)  14:17-14:17-  22050.9 52338mSCRGarladinne, Andhra Pradesh
8.12ATPAnantapur (2)  14:36-14:36-  22067.4 52349mSCRAnantapur, Andhra Pradesh
8.13ZPLZangalapalle (2)X  14:51-14:51-  22080.1 52372mSCRChennai - Anantpur Rd, Andhra Pradesh
8.14CCAChigicherla (2)  15:02-15:02-  22089.4 52375mSCRChennai - Anantpur Rd, Andhra Pradesh
9DMMDharmavaram Junction (5)  15:15-15:20-5m122100.846371mSCRDharmavaram, Andhra Pradesh
9.1NGMNagasamudram (1)  15:39-15:39-  22115.6 46423mSWRRayalaseema Region, Andhra Pradesh
9.2MKJMakkajipalli (1)X  15:59-15:59-  22130.5 46491mSWRGutturu, Andhra Pradesh
9.3PKDPenukonda Junction (2)X  16:15-16:15-  22142.6 46548mSWRNH 7 Anantapur District, Andhra Pradesh
9.4REPIRangepalli (2)  16:31-16:31-  22155.2 46629mSWRAnantapur Dist., Andhra Pradesh
9.5CPLChakarlapalli (1)X  16:34-16:34-  22156.9 46635mSWRAnantpur, Andhra Pradesh
9.6MLUMalugur (2)  16:50-16:50-  22169.6 46629mSWRHindupur, Andhra Pradesh
9.7HUPHindupur (4)X  17:04-17:04-  22180.1 46636mSWRHindupur, Andhra Pradesh
9.8DPEDevarapalli (2)  17:18-17:18-  22190.8 46674mSWRState Highway 9, Andhra Pradesh
9.9VWAViduraswattha (1)  17:27-17:27-  22197.4 46678mSWRState Highway 9, Karnataka
9.10GBDGauribidanur (2)X  17:35-17:35-  22203.5 46684mSWRChikkaballapur Dist., Karnataka
9.11SMWASomeshwara (2)  17:43-17:43-  22209.4 46716mSWRState Highway 9, Karnataka
9.12TDVThondebhavi (1)X  17:52-17:52-  22216.3 46755mSWRTondebavi, Karnataka
9.13MKLMakalidurga (1)X  18:03-18:03-  22225.3 46833mSWRMakalidurga, Karnataka
9.14ORHOddarahalli (1)X  18:17-18:17-  22235.6 46904mSWROddarahalli, Karnataka
9.15DBUDodballapur (4)X  18:27-18:27-  22243.0 46896mSWRDoddaballapur, Karnataka
9.16RNNRajanukunte (2)  18:42-18:42-  22255.0 46915mSWRDoddaballapur Rd, Karnataka
9.17YNKYelahanka Junction (4)  18:54-18:54-  22263.7 46911mSWRBengaluru-560064, Karnataka
9.18KDGHKodigehalli (1)  19:01-19:01-  22269.0 46914mSWRBangalore, Karnataka
9.19LOGHLottegollahalli (2)  19:04-19:04-  22271.6 46908mSWRBengaluru-94, Karnataka
10YPR•Yesvantpur Junction (6)•  19:10--422276.0-919mSWRBengaluru 560022, Karnataka
Scroll to Top
Scroll to Bottom